sensor_id;sensor_type;location;lat;lon;timestamp;pressure;altitude;pressure_sealevel;temperature;humidity
2192;BME280;1102;49.718;11.902;2023-02-18T00:00:27;96754.91;;;7.90;100.00
2192;BME280;1102;49.718;11.902;2023-02-18T00:02:54;96704.13;;;7.53;100.00
2192;BME280;1102;49.718;11.902;2023-02-18T00:05:23;96727.31;;;7.65;100.00
2192;BME280;1102;49.718;11.902;2023-02-18T00:07:50;96713.88;;;7.53;100.00
2192;BME280;1102;49.718;11.902;2023-02-18T00:10:17;96711.13;;;7.58;100.00
2192;BME280;1102;49.718;11.902;2023-02-18T00:12:44;96735.44;;;7.77;100.00
2192;BME280;1102;49.718;11.902;2023-02-18T00:15:10;96758.41;;;7.85;100.00
2192;BME280;1102;49.718;11.902;2023-02-18T00:17:37;96766.22;;;7.90;100.00
2192;BME280;1102;49.718;11.902;2023-02-18T00:20:06;96740.50;;;7.74;100.00
2192;BME280;1102;49.718;11.902;2023-02-18T00:22:33;96728.06;;;7.65;100.00
2192;BME280;1102;49.718;11.902;2023-02-18T00:25:00;96748.91;;;7.76;100.00
2192;BME280;1102;49.718;11.902;2023-02-18T00:27:27;96767.22;;;7.81;100.00
2192;BME280;1102;49.718;11.902;2023-02-18T00:29:54;96742.19;;;7.69;100.00
2192;BME280;1102;49.718;11.902;2023-02-18T00:32:20;96735.97;;;7.65;100.00
2192;BME280;1102;49.718;11.902;2023-02-18T00:34:47;96743.75;;;7.70;100.00
2192;BME280;1102;49.718;11.902;2023-02-18T00:37:14;96758.84;;;7.79;100.00
2192;BME280;1102;49.718;11.902;2023-02-18T00:39:40;96726.44;;;7.56;100.00
2192;BME280;1102;49.718;11.902;2023-02-18T00:42:07;96735.97;;;7.65;100.00
2192;BME280;1102;49.718;11.902;2023-02-18T00:44:34;96743.75;;;7.70;100.00
2192;BME280;1102;49.718;11.902;2023-02-18T00:47:01;96743.34;;;7.77;100.00
2192;BME280;1102;49.718;11.902;2023-02-18T00:49:27;96760.75;;;7.87;100.00
2192;BME280;1102;49.718;11.902;2023-02-18T00:51:54;96743.44;;;7.72;100.00
2192;BME280;1102;49.718;11.902;2023-02-18T00:54:20;96720.47;;;7.64;100.00
2192;BME280;1102;49.718;11.902;2023-02-18T00:56:49;96740.03;;;7.71;100.00
2192;BME280;1102;49.718;11.902;2023-02-18T00:59:15;96752.97;;;7.82;100.00
2192;BME280;1102;49.718;11.902;2023-02-18T01:01:42;96760.41;;;7.80;100.00
2192;BME280;1102;49.718;11.902;2023-02-18T01:04:09;96754.34;;;7.79;100.00
2192;BME280;1102;49.718;11.902;2023-02-18T01:06:36;96719.16;;;7.53;100.00
2192;BME280;1102;49.718;11.902;2023-02-18T01:09:04;96757.00;;;7.79;100.00
2192;BME280;1102;49.718;11.902;2023-02-18T01:11:31;96690.06;;;7.35;100.00
2192;BME280;1102;49.718;11.902;2023-02-18T01:13:58;96679.94;;;7.29;100.00
2192;BME280;1102;49.718;11.902;2023-02-18T01:16:27;96731.41;;;7.57;100.00
2192;BME280;1102;49.718;11.902;2023-02-18T01:18:54;96761.00;;;7.77;100.00
2192;BME280;1102;49.718;11.902;2023-02-18T01:21:21;96743.25;;;7.68;100.00
2192;BME280;1102;49.718;11.902;2023-02-18T01:23:48;96725.34;;;7.57;100.00
2192;BME280;1102;49.718;11.902;2023-02-18T01:26:14;96750.09;;;7.69;100.00
2192;BME280;1102;49.718;11.902;2023-02-18T01:28:41;96744.50;;;7.49;100.00
2192;BME280;1102;49.718;11.902;2023-02-18T01:31:10;96746.63;;;7.47;100.00
2192;BME280;1102;49.718;11.902;2023-02-18T01:33:38;96743.78;;;7.57;100.00
2192;BME280;1102;49.718;11.902;2023-02-18T01:36:05;96730.91;;;7.55;100.00
2192;BME280;1102;49.718;11.902;2023-02-18T01:38:32;96719.53;;;7.46;100.00
2192;BME280;1102;49.718;11.902;2023-02-18T01:40:59;96725.41;;;7.43;100.00
2192;BME280;1102;49.718;11.902;2023-02-18T01:43:27;96730.56;;;7.48;100.00
2192;BME280;1102;49.718;11.902;2023-02-18T01:45:58;96711.66;;;7.32;100.00
2192;BME280;1102;49.718;11.902;2023-02-18T01:48:40;96734.22;;;7.61;100.00
2192;BME280;1102;49.718;11.902;2023-02-18T01:53:46;96742.41;;;7.59;100.00
2192;BME280;1102;49.718;11.902;2023-02-18T01:56:21;96724.78;;;7.46;100.00
2192;BME280;1102;49.718;11.902;2023-02-18T01:58:49;96727.28;;;7.29;100.00
2192;BME280;1102;49.718;11.902;2023-02-18T02:01:18;96703.03;;;7.18;100.00
2192;BME280;1102;49.718;11.902;2023-02-18T02:03:45;96717.19;;;7.45;100.00
2192;BME280;1102;49.718;11.902;2023-02-18T02:06:16;96721.94;;;7.56;100.00
2192;BME280;1102;49.718;11.902;2023-02-18T02:08:44;96742.09;;;7.61;100.00
2192;BME280;1102;49.718;11.902;2023-02-18T02:11:35;96733.13;;;7.76;100.00
2192;BME280;1102;49.718;11.902;2023-02-18T02:22:38;96731.19;;;7.67;100.00
2192;BME280;1102;49.718;11.902;2023-02-18T02:25:20;96724.53;;;7.70;100.00
2192;BME280;1102;49.718;11.902;2023-02-18T02:31:13;96725.88;;;7.81;100.00
2192;BME280;1102;49.718;11.902;2023-02-18T02:44:33;96699.72;;;7.62;100.00
2192;BME280;1102;49.718;11.902;2023-02-18T02:47:10;96736.75;;;7.66;100.00
2192;BME280;1102;49.718;11.902;2023-02-18T02:49:48;96719.56;;;7.68;100.00
2192;BME280;1102;49.718;11.902;2023-02-18T02:52:25;96725.31;;;7.70;100.00
2192;BME280;1102;49.718;11.902;2023-02-18T02:54:54;96687.44;;;7.58;100.00
2192;BME280;1102;49.718;11.902;2023-02-18T02:59:59;96720.84;;;7.71;100.00
2192;BME280;1102;49.718;11.902;2023-02-18T03:16:26;96694.72;;;7.38;100.00
2192;BME280;1102;49.718;11.902;2023-02-18T03:19:01;96692.31;;;7.28;100.00
2192;BME280;1102;49.718;11.902;2023-02-18T03:21:38;96662.16;;;6.98;100.00
2192;BME280;1102;49.718;11.902;2023-02-18T03:24:17;96690.94;;;7.31;100.00
2192;BME280;1102;49.718;11.902;2023-02-18T03:26:59;96699.50;;;7.36;100.00
2192;BME280;1102;49.718;11.902;2023-02-18T03:29:30;96695.72;;;7.15;100.00
2192;BME280;1102;49.718;11.902;2023-02-18T03:32:00;96683.47;;;7.24;100.00
2192;BME280;1102;49.718;11.902;2023-02-18T03:34:30;96707.88;;;7.38;100.00
2192;BME280;1102;49.718;11.902;2023-02-18T03:36:59;96677.81;;;7.03;100.00
2192;BME280;1102;49.718;11.902;2023-02-18T03:39:29;96706.44;;;7.19;100.00
2192;BME280;1102;49.718;11.902;2023-02-18T03:41:56;96666.19;;;6.82;100.00
2192;BME280;1102;49.718;11.902;2023-02-18T03:44:24;96690.97;;;7.17;100.00
2192;BME280;1102;49.718;11.902;2023-02-18T03:46:51;96697.78;;;7.18;100.00
2192;BME280;1102;49.718;11.902;2023-02-18T03:49:19;96688.75;;;7.10;100.00
2192;BME280;1102;49.718;11.902;2023-02-18T03:51:46;96646.38;;;7.12;100.00
2192;BME280;1102;49.718;11.902;2023-02-18T03:54:13;96676.03;;;7.26;100.00
2192;BME280;1102;49.718;11.902;2023-02-18T03:56:41;96702.41;;;7.49;100.00
2192;BME280;1102;49.718;11.902;2023-02-18T03:59:09;96704.13;;;7.53;100.00
2192;BME280;1102;49.718;11.902;2023-02-18T04:01:36;96684.25;;;7.47;100.00
2192;BME280;1102;49.718;11.902;2023-02-18T04:04:03;96677.88;;;7.39;100.00
2192;BME280;1102;49.718;11.902;2023-02-18T04:06:30;96701.28;;;7.63;100.00
2192;BME280;1102;49.718;11.902;2023-02-18T04:08:57;96675.41;;;7.43;100.00
2192;BME280;1102;49.718;11.902;2023-02-18T04:11:24;96670.06;;;7.34;100.00
2192;BME280;1102;49.718;11.902;2023-02-18T04:13:50;96699.72;;;7.62;100.00
2192;BME280;1102;49.718;11.902;2023-02-18T04:16:17;96702.88;;;7.73;100.00
2192;BME280;1102;49.718;11.902;2023-02-18T04:18:44;96679.47;;;7.63;100.00
2192;BME280;1102;49.718;11.902;2023-02-18T04:21:10;96712.63;;;7.72;100.00
2192;BME280;1102;49.718;11.902;2023-02-18T04:23:37;96713.50;;;7.82;100.00
2192;BME280;1102;49.718;11.902;2023-02-18T04:26:03;96714.19;;;7.74;100.00
2192;BME280;1102;49.718;11.902;2023-02-18T04:28:30;96686.38;;;7.59;100.00
2192;BME280;1102;49.718;11.902;2023-02-18T04:30:57;96674.41;;;7.53;100.00
2192;BME280;1102;49.718;11.902;2023-02-18T04:33:23;96717.19;;;7.81;100.00
2192;BME280;1102;49.718;11.902;2023-02-18T04:35:50;96696.91;;;7.59;100.00
2192;BME280;1102;49.718;11.902;2023-02-18T04:38:17;96719.44;;;7.74;100.00
2192;BME280;1102;49.718;11.902;2023-02-18T04:40:43;96673.16;;;7.50;100.00
2192;BME280;1102;49.718;11.902;2023-02-18T04:43:10;96693.00;;;7.56;100.00
2192;BME280;1102;49.718;11.902;2023-02-18T04:45:37;96717.81;;;7.78;100.00
2192;BME280;1102;49.718;11.902;2023-02-18T04:48:04;96721.22;;;7.78;100.00
2192;BME280;1102;49.718;11.902;2023-02-18T04:50:30;96683.88;;;7.54;100.00
2192;BME280;1102;49.718;11.902;2023-02-18T04:52:57;96689.31;;;7.57;100.00
2192;BME280;1102;49.718;11.902;2023-02-18T04:55:24;96630.78;;;7.16;100.00
2192;BME280;1102;49.718;11.902;2023-02-18T04:57:50;96706.84;;;7.62;100.00
2192;BME280;1102;49.718;11.902;2023-02-18T05:00:18;96727.66;;;7.72;100.00
2192;BME280;1102;49.718;11.902;2023-02-18T05:02:45;96706.25;;;7.65;100.00
2192;BME280;1102;49.718;11.902;2023-02-18T05:05:12;96709.06;;;7.68;100.00
2192;BME280;1102;49.718;11.902;2023-02-18T05:07:39;96718.03;;;7.67;100.00
2192;BME280;1102;49.718;11.902;2023-02-18T05:10:09;96696.25;;;7.53;100.00
2192;BME280;1102;49.718;11.902;2023-02-18T05:12:36;96691.34;;;7.60;100.00
2192;BME280;1102;49.718;11.902;2023-02-18T05:15:03;96721.13;;;7.69;100.00
2192;BME280;1102;49.718;11.902;2023-02-18T05:17:30;96687.28;;;7.54;100.00
2192;BME280;1102;49.718;11.902;2023-02-18T05:19:57;96716.00;;;7.64;100.00
2192;BME280;1102;49.718;11.902;2023-02-18T05:22:23;96695.56;;;7.48;100.00
2192;BME280;1102;49.718;11.902;2023-02-18T05:24:50;96697.91;;;7.49;100.00
2192;BME280;1102;49.718;11.902;2023-02-18T05:27:17;96696.63;;;7.47;100.00
2192;BME280;1102;49.718;11.902;2023-02-18T05:29:43;96685.84;;;7.48;100.00
2192;BME280;1102;49.718;11.902;2023-02-18T05:32:10;96718.31;;;7.66;100.00
2192;BME280;1102;49.718;11.902;2023-02-18T05:34:37;96684.47;;;7.51;100.00
2192;BME280;1102;49.718;11.902;2023-02-18T05:37:03;96716.94;;;7.68;100.00
2192;BME280;1102;49.718;11.902;2023-02-18T05:39:30;96674.03;;;7.46;100.00
2192;BME280;1102;49.718;11.902;2023-02-18T05:41:57;96667.44;;;7.48;100.00
2192;BME280;1102;49.718;11.902;2023-02-18T05:44:23;96681.72;;;7.56;100.00
2192;BME280;1102;49.718;11.902;2023-02-18T05:47:02;96706.34;;;7.60;100.00
2192;BME280;1102;49.718;11.902;2023-02-18T05:49:30;96708.09;;;7.64;100.00
2192;BME280;1102;49.718;11.902;2023-02-18T05:51:57;96681.44;;;7.44;100.00
2192;BME280;1102;49.718;11.902;2023-02-18T05:54:24;96711.22;;;7.66;100.00
2192;BME280;1102;49.718;11.902;2023-02-18T05:56:52;96712.88;;;7.62;100.00
2192;BME280;1102;49.718;11.902;2023-02-18T05:59:19;96715.25;;;7.50;100.00
2192;BME280;1102;49.718;11.902;2023-02-18T06:01:46;96664.28;;;7.24;100.00
2192;BME280;1102;49.718;11.902;2023-02-18T06:04:14;96682.09;;;7.27;100.00
2192;BME280;1102;49.718;11.902;2023-02-18T06:06:41;96702.13;;;7.36;100.00
2192;BME280;1102;49.718;11.902;2023-02-18T06:09:08;96701.13;;;7.46;100.00
2192;BME280;1102;49.718;11.902;2023-02-18T06:11:35;96712.41;;;7.47;100.00
2192;BME280;1102;49.718;11.902;2023-02-18T06:14:01;96695.00;;;7.51;100.00
2192;BME280;1102;49.718;11.902;2023-02-18T06:16:28;96701.03;;;7.51;100.00
2192;BME280;1102;49.718;11.902;2023-02-18T06:18:56;96721.66;;;7.58;100.00
2192;BME280;1102;49.718;11.902;2023-02-18T06:21:23;96694.72;;;7.38;100.00
2192;BME280;1102;49.718;11.902;2023-02-18T06:23:50;96709.28;;;7.58;100.00
2192;BME280;1102;49.718;11.902;2023-02-18T06:26:16;96700.94;;;7.43;100.00
2192;BME280;1102;49.718;11.902;2023-02-18T06:28:43;96655.91;;;7.22;100.00
2192;BME280;1102;49.718;11.902;2023-02-18T06:31:10;96682.22;;;7.44;100.00
2192;BME280;1102;49.718;11.902;2023-02-18T06:33:37;96696.13;;;7.58;100.00
2192;BME280;1102;49.718;11.902;2023-02-18T06:36:07;96647.13;;;7.26;100.00
2192;BME280;1102;49.718;11.902;2023-02-18T06:38:41;96690.69;;;7.55;100.00
2192;BME280;1102;49.718;11.902;2023-02-18T06:41:10;96687.56;;;7.53;100.00
2192;BME280;1102;49.718;11.902;2023-02-18T06:43:37;96680.56;;;7.48;100.00
2192;BME280;1102;49.718;11.902;2023-02-18T06:46:04;96644.38;;;7.31;100.00
2192;BME280;1102;49.718;11.902;2023-02-18T06:48:34;96628.22;;;7.24;100.00
2192;BME280;1102;49.718;11.902;2023-02-18T06:51:01;96657.91;;;7.38;100.00
2192;BME280;1102;49.718;11.902;2023-02-18T06:53:27;96646.91;;;7.36;100.00
2192;BME280;1102;49.718;11.902;2023-02-18T06:55:54;96630.72;;;7.29;100.00
2192;BME280;1102;49.718;11.902;2023-02-18T06:58:21;96618.00;;;7.23;100.00
2192;BME280;1102;49.718;11.902;2023-02-18T07:00:49;96638.28;;;7.45;100.00
2192;BME280;1102;49.718;11.902;2023-02-18T07:03:16;96609.41;;;7.31;100.00
2192;BME280;1102;49.718;11.902;2023-02-18T07:05:43;96595.59;;;7.25;100.00
2192;BME280;1102;49.718;11.902;2023-02-18T07:08:10;96607.38;;;7.28;100.00
2192;BME280;1102;49.718;11.902;2023-02-18T07:10:36;96630.28;;;7.50;100.00
2192;BME280;1102;49.718;11.902;2023-02-18T07:13:04;96605.63;;;7.46;100.00
2192;BME280;1102;49.718;11.902;2023-02-18T07:15:30;96579.09;;;7.33;100.00
2192;BME280;1102;49.718;11.902;2023-02-18T07:17:57;96610.97;;;7.54;100.00
2192;BME280;1102;49.718;11.902;2023-02-18T07:20:25;96605.41;;;7.56;100.00
2192;BME280;1102;49.718;11.902;2023-02-18T07:22:52;96596.25;;;7.53;100.00
2192;BME280;1102;49.718;11.902;2023-02-18T07:25:19;96600.91;;;7.56;100.00
2192;BME280;1102;49.718;11.902;2023-02-18T07:27:49;96604.09;;;7.67;100.00
2192;BME280;1102;49.718;11.902;2023-02-18T07:30:17;96606.91;;;7.70;100.00
2192;BME280;1102;49.718;11.902;2023-02-18T07:32:43;96599.78;;;7.71;100.00
2192;BME280;1102;49.718;11.902;2023-02-18T07:35:13;96604.72;;;7.72;100.00
2192;BME280;1102;49.718;11.902;2023-02-18T07:37:47;96602.09;;;7.72;100.00
2192;BME280;1102;49.718;11.902;2023-02-18T07:40:17;96602.09;;;7.72;100.00
2192;BME280;1102;49.718;11.902;2023-02-18T07:42:44;96596.66;;;7.69;100.00
2192;BME280;1102;49.718;11.902;2023-02-18T07:45:11;96609.13;;;7.77;100.00
2192;BME280;1102;49.718;11.902;2023-02-18T07:47:38;96569.81;;;7.58;100.00
2192;BME280;1102;49.718;11.902;2023-02-18T07:50:05;96605.88;;;7.80;100.00
2192;BME280;1102;49.718;11.902;2023-02-18T07:52:32;96584.53;;;7.59;100.00
2192;BME280;1102;49.718;11.902;2023-02-18T07:54:59;96622.44;;;7.81;100.00
2192;BME280;1102;49.718;11.902;2023-02-18T07:57:25;96613.00;;;7.80;100.00
2192;BME280;1102;49.718;11.902;2023-02-18T07:59:52;96618.25;;;7.80;100.00
2192;BME280;1102;49.718;11.902;2023-02-18T08:02:21;96613.00;;;7.80;100.00
2192;BME280;1102;49.718;11.902;2023-02-18T08:04:48;96589.69;;;7.64;100.00
2192;BME280;1102;49.718;11.902;2023-02-18T08:07:17;96584.44;;;7.64;100.00
2192;BME280;1102;49.718;11.902;2023-02-18T08:09:44;96610.84;;;7.82;100.00
2192;BME280;1102;49.718;11.902;2023-02-18T08:12:11;96591.66;;;7.59;100.00
2192;BME280;1102;49.718;11.902;2023-02-18T08:14:38;96605.22;;;7.75;100.00
2192;BME280;1102;49.718;11.902;2023-02-18T08:17:04;96596.66;;;7.69;100.00
2192;BME280;1102;49.718;11.902;2023-02-18T08:19:31;96630.41;;;7.89;100.00
2192;BME280;1102;49.718;11.902;2023-02-18T08:22:00;96626.81;;;7.85;100.00
2192;BME280;1102;49.718;11.902;2023-02-18T08:24:27;96609.06;;;7.68;100.00
2192;BME280;1102;49.718;11.902;2023-02-18T08:26:54;96641.44;;;8.00;100.00
2192;BME280;1102;49.718;11.902;2023-02-18T08:29:27;96616.16;;;7.90;100.00
2192;BME280;1102;49.718;11.902;2023-02-18T08:31:53;96626.72;;;7.99;100.00
2192;BME280;1102;49.718;11.902;2023-02-18T08:34:22;96614.94;;;7.96;100.00
2192;BME280;1102;49.718;11.902;2023-02-18T08:36:49;96628.78;;;8.02;100.00
2192;BME280;1102;49.718;11.902;2023-02-18T08:39:16;96646.69;;;8.22;100.00
2192;BME280;1102;49.718;11.902;2023-02-18T08:41:42;96606.75;;;7.98;100.00
2192;BME280;1102;49.718;11.902;2023-02-18T08:44:09;96613.78;;;8.11;100.00
2192;BME280;1102;49.718;11.902;2023-02-18T08:46:36;96613.97;;;8.15;100.00
2192;BME280;1102;49.718;11.902;2023-02-18T08:49:03;96627.00;;;8.20;100.00
2192;BME280;1102;49.718;11.902;2023-02-18T08:51:30;96659.22;;;8.48;100.00
2192;BME280;1102;49.718;11.902;2023-02-18T08:53:57;96624.63;;;8.41;100.00
2192;BME280;1102;49.718;11.902;2023-02-18T08:56:24;96608.69;;;8.46;100.00
2192;BME280;1102;49.718;11.902;2023-02-18T08:58:51;96608.53;;;8.42;100.00
2192;BME280;1102;49.718;11.902;2023-02-18T09:01:17;96595.28;;;8.34;100.00
2192;BME280;1102;49.718;11.902;2023-02-18T09:03:44;96638.50;;;8.55;100.00
2192;BME280;1102;49.718;11.902;2023-02-18T09:06:10;96600.22;;;8.26;100.00
2192;BME280;1102;49.718;11.902;2023-02-18T09:08:37;96615.78;;;8.37;100.00
2192;BME280;1102;49.718;11.902;2023-02-18T09:11:04;96632.72;;;8.53;100.00
2192;BME280;1102;49.718;11.902;2023-02-18T09:13:32;96624.50;;;8.54;100.00
2192;BME280;1102;49.718;11.902;2023-02-18T09:16:09;96645.78;;;8.58;100.00
2192;BME280;1102;49.718;11.902;2023-02-18T09:18:36;96607.59;;;8.47;100.00
2192;BME280;1102;49.718;11.902;2023-02-18T09:21:04;96599.25;;;8.45;100.00
2192;BME280;1102;49.718;11.902;2023-02-18T09:23:32;96591.59;;;8.35;100.00
2192;BME280;1102;49.718;11.902;2023-02-18T09:26:03;96637.75;;;8.72;100.00
2192;BME280;1102;49.718;11.902;2023-02-18T09:28:31;96598.16;;;8.54;100.00
2192;BME280;1102;49.718;11.902;2023-02-18T09:31:03;96625.97;;;8.69;100.00
2192;BME280;1102;49.718;11.902;2023-02-18T09:33:30;96638.09;;;8.79;100.00
2192;BME280;1102;49.718;11.902;2023-02-18T09:35:57;96608.63;;;8.68;100.00
2192;BME280;1102;49.718;11.902;2023-02-18T09:38:23;96651.16;;;9.01;100.00
2192;BME280;1102;49.718;11.902;2023-02-18T09:40:52;96665.59;;;9.04;100.00
2192;BME280;1102;49.718;11.902;2023-02-18T09:43:28;96660.94;;;9.01;100.00
2192;BME280;1102;49.718;11.902;2023-02-18T09:45:58;96635.31;;;8.84;100.00
2192;BME280;1102;49.718;11.902;2023-02-18T09:48:28;96634.06;;;8.81;100.00
2192;BME280;1102;49.718;11.902;2023-02-18T09:50:57;96629.84;;;8.80;100.00
2192;BME280;1102;49.718;11.902;2023-02-18T09:53:24;96602.38;;;8.64;100.00
2192;BME280;1102;49.718;11.902;2023-02-18T09:55:53;96634.84;;;8.82;100.00
2192;BME280;1102;49.718;11.902;2023-02-18T09:58:32;96637.50;;;8.91;100.00
2192;BME280;1102;49.718;11.902;2023-02-18T10:01:04;96633.34;;;8.98;100.00
2192;BME280;1102;49.718;11.902;2023-02-18T10:03:32;96640.28;;;8.85;100.00
2192;BME280;1102;49.718;11.902;2023-02-18T10:06:15;96609.97;;;8.66;100.00
2192;BME280;1102;49.718;11.902;2023-02-18T10:08:45;96611.75;;;8.87;100.00
2192;BME280;1102;49.718;11.902;2023-02-18T10:11:16;96647.47;;;9.11;100.00
2192;BME280;1102;49.718;11.902;2023-02-18T10:13:43;96606.03;;;9.03;100.00
2192;BME280;1102;49.718;11.902;2023-02-18T10:16:16;96602.75;;;9.06;100.00
2192;BME280;1102;49.718;11.902;2023-02-18T10:18:45;96605.41;;;9.14;100.00
2192;BME280;1102;49.718;11.902;2023-02-18T10:21:18;96600.75;;;9.20;100.00
2192;BME280;1102;49.718;11.902;2023-02-18T10:24:16;96591.16;;;9.24;100.00
2192;BME280;1102;49.718;11.902;2023-02-18T10:26:41;96610.41;;;9.51;100.00
2192;BME280;1102;49.718;11.902;2023-02-18T10:29:17;96571.13;;;9.32;100.00
2192;BME280;1102;49.718;11.902;2023-02-18T10:31:55;96604.47;;;9.62;100.00
2192;BME280;1102;49.718;11.902;2023-02-18T10:37:02;96590.69;;;9.39;100.00
2192;BME280;1102;49.718;11.902;2023-02-18T10:39:39;96587.88;;;9.44;100.00
2192;BME280;1102;49.718;11.902;2023-02-18T10:44:56;96577.94;;;9.33;100.00
2192;BME280;1102;49.718;11.902;2023-02-18T10:47:37;96578.44;;;9.35;100.00
2192;BME280;1102;49.718;11.902;2023-02-18T10:52:43;96593.16;;;9.36;100.00
2192;BME280;1102;49.718;11.902;2023-02-18T10:55:13;96591.00;;;9.38;100.00
2192;BME280;1102;49.718;11.902;2023-02-18T10:57:49;96585.22;;;9.44;100.00
2192;BME280;1102;49.718;11.902;2023-02-18T11:00:26;96571.44;;;9.30;100.00
2192;BME280;1102;49.718;11.902;2023-02-18T11:05:40;96552.66;;;9.40;100.00
2192;BME280;1102;49.718;11.902;2023-02-18T11:08:10;96568.63;;;9.53;100.00
2192;BME280;1102;49.718;11.902;2023-02-18T11:10:42;96562.56;;;9.52;100.00
2192;BME280;1102;49.718;11.902;2023-02-18T11:13:12;96552.47;;;9.54;100.00
2192;BME280;1102;49.718;11.902;2023-02-18T11:16:00;96561.63;;;9.65;100.00
2192;BME280;1102;49.718;11.902;2023-02-18T11:18:36;96529.31;;;9.60;100.00
2192;BME280;1102;49.718;11.902;2023-02-18T11:21:08;96504.50;;;9.52;100.00
2192;BME280;1102;49.718;11.902;2023-02-18T11:23:49;96561.44;;;9.79;100.00
2192;BME280;1102;49.718;11.902;2023-02-18T11:26:28;96536.13;;;9.78;100.00
2192;BME280;1102;49.718;11.902;2023-02-18T11:29:19;96549.91;;;9.84;100.00
2192;BME280;1102;49.718;11.902;2023-02-18T11:31:48;96483.84;;;9.54;100.00
2192;BME280;1102;49.718;11.902;2023-02-18T11:34:22;96552.53;;;9.92;100.00
2192;BME280;1102;49.718;11.902;2023-02-18T11:36:51;96496.09;;;9.59;100.00
2192;BME280;1102;49.718;11.902;2023-02-18T11:39:23;96494.38;;;9.63;100.00
2192;BME280;1102;49.718;11.902;2023-02-18T11:44:29;96472.34;;;9.59;100.00
2192;BME280;1102;49.718;11.902;2023-02-18T11:46:59;96542.59;;;9.89;100.00
2192;BME280;1102;49.718;11.902;2023-02-18T11:49:28;96523.38;;;9.80;100.00
2192;BME280;1102;49.718;11.902;2023-02-18T11:52:09;96471.88;;;9.57;100.00
2192;BME280;1102;49.718;11.902;2023-02-18T11:54:39;96515.88;;;9.91;100.00
2192;BME280;1102;49.718;11.902;2023-02-18T11:57:11;96511.97;;;9.97;100.00
2192;BME280;1102;49.718;11.902;2023-02-18T11:59:39;96482.06;;;9.75;100.00
2192;BME280;1102;49.718;11.902;2023-02-18T12:07:21;96500.59;;;10.05;100.00
2192;BME280;1102;49.718;11.902;2023-02-18T12:09:52;96505.38;;;10.12;100.00
2192;BME280;1102;49.718;11.902;2023-02-18T12:12:29;96453.44;;;9.86;100.00
2192;BME280;1102;49.718;11.902;2023-02-18T12:14:58;96515.06;;;9.99;100.00
2192;BME280;1102;49.718;11.902;2023-02-18T12:18:03;96493.47;;;9.97;100.00
2192;BME280;1102;49.718;11.902;2023-02-18T12:23:40;96457.56;;;9.66;100.00
2192;BME280;1102;49.718;11.902;2023-02-18T12:26:28;96496.63;;;9.90;100.00
2192;BME280;1102;49.718;11.902;2023-02-18T12:34:42;96476.28;;;9.82;100.00
2192;BME280;1102;49.718;11.902;2023-02-18T12:49:01;96449.19;;;9.64;100.00
2192;BME280;1102;49.718;11.902;2023-02-18T12:54:36;96472.56;;;9.83;100.00
2192;BME280;1102;49.718;11.902;2023-02-18T13:06:18;96464.06;;;9.69;100.00
2192;BME280;1102;49.718;11.902;2023-02-18T13:12:16;96437.41;;;9.62;100.00
2192;BME280;1102;49.718;11.902;2023-02-18T13:15:01;96436.72;;;9.35;100.00
2192;BME280;1102;49.718;11.902;2023-02-18T13:17:33;96409.69;;;9.38;100.00
2192;BME280;1102;49.718;11.902;2023-02-18T13:20:13;96430.91;;;9.51;100.00
2192;BME280;1102;49.718;11.902;2023-02-18T13:22:44;96427.53;;;9.41;100.00
2192;BME280;1102;49.718;11.902;2023-02-18T13:25:12;96402.91;;;9.20;100.00
2192;BME280;1102;49.718;11.902;2023-02-18T13:35:59;96443.81;;;9.52;100.00
2192;BME280;1102;49.718;11.902;2023-02-18T13:38:55;96409.69;;;9.38;100.00
2192;BME280;1102;49.718;11.902;2023-02-18T13:41:25;96405.06;;;9.35;100.00
2192;BME280;1102;49.718;11.902;2023-02-18T13:43:52;96394.78;;;9.34;100.00
2192;BME280;1102;49.718;11.902;2023-02-18T13:46:23;96410.28;;;9.44;100.00
2192;BME280;1102;49.718;11.902;2023-02-18T13:48:52;96413.94;;;9.60;100.00
2192;BME280;1102;49.718;11.902;2023-02-18T13:51:28;96426.56;;;9.84;100.00
2192;BME280;1102;49.718;11.902;2023-02-18T13:54:01;96438.84;;;9.89;100.00
2192;BME280;1102;49.718;11.902;2023-02-18T13:56:30;96392.38;;;9.58;100.00
2192;BME280;1102;49.718;11.902;2023-02-18T13:59:08;96438.56;;;9.73;100.00
2192;BME280;1102;49.718;11.902;2023-02-18T14:01:38;96417.47;;;9.73;100.00
2192;BME280;1102;49.718;11.902;2023-02-18T14:09:57;96444.38;;;9.58;100.00
2192;BME280;1102;49.718;11.902;2023-02-18T14:26:28;96403.25;;;9.10;100.00
2192;BME280;1102;49.718;11.902;2023-02-18T14:29:00;96438.75;;;9.21;100.00
2192;BME280;1102;49.718;11.902;2023-02-18T14:34:07;96436.19;;;8.78;100.00
2192;BME280;1102;49.718;11.902;2023-02-18T14:37:37;96367.38;;;8.36;100.00
2192;BME280;1102;49.718;11.902;2023-02-18T14:40:00;96405.97;;;8.58;100.00
2192;BME280;1102;49.718;11.902;2023-02-18T14:42:53;96402.56;;;8.49;100.00
2192;BME280;1102;49.718;11.902;2023-02-18T14:45:41;96393.53;;;8.15;100.00
2192;BME280;1102;49.718;11.902;2023-02-18T14:51:22;96423.16;;;8.47;100.00
2192;BME280;1102;49.718;11.902;2023-02-18T14:53:51;96385.47;;;8.20;100.00
2192;BME280;1102;49.718;11.902;2023-02-18T14:56:19;96418.84;;;8.42;100.00
2192;BME280;1102;49.718;11.902;2023-02-18T14:58:54;96398.34;;;8.30;100.00
2192;BME280;1102;49.718;11.902;2023-02-18T15:01:31;96410.75;;;8.39;100.00
2192;BME280;1102;49.718;11.902;2023-02-18T15:04:00;96408.25;;;8.34;100.00
2192;BME280;1102;49.718;11.902;2023-02-18T15:08:53;96362.97;;;8.14;100.00
2192;BME280;1102;49.718;11.902;2023-02-18T15:11:22;96425.19;;;8.50;100.00
2192;BME280;1102;49.718;11.902;2023-02-18T15:13:50;96397.25;;;8.23;100.00
2192;BME280;1102;49.718;11.902;2023-02-18T15:16:35;96417.72;;;8.35;100.00
2192;BME280;1102;49.718;11.902;2023-02-18T15:19:05;96414.16;;;8.39;100.00
2192;BME280;1102;49.718;11.902;2023-02-18T15:21:38;96452.78;;;8.61;100.00
2192;BME280;1102;49.718;11.902;2023-02-18T15:24:10;96438.19;;;8.46;100.00
2192;BME280;1102;49.718;11.902;2023-02-18T15:26:45;96463.31;;;8.61;100.00
2192;BME280;1102;49.718;11.902;2023-02-18T15:29:19;96474.16;;;8.77;100.00
2192;BME280;1102;49.718;11.902;2023-02-18T15:31:47;96477.75;;;8.72;100.00
2192;BME280;1102;49.718;11.902;2023-02-18T15:34:36;96452.63;;;8.57;100.00
2192;BME280;1102;49.718;11.902;2023-02-18T15:37:07;96475.25;;;8.76;100.00